Time;durP1;ratioP1;P1;durP2;ratioP2;P2;SDS_P1;SDS_P2;PMS_P1;PMS_P2;Temp;Humidity;BMP_temperature;BMP_pressure;BME280_temperature;BME280_humidity;BME280_pressure;Samples;Min_cycle;Max_cycle;Signal;HPM_P1;HPM_P2
2022/04/29 00:00:42;;;;;;;8.40;3.28;;;9.70;68.50;;;;;;5095672;28;20089;-29
2022/04/29 00:03:09;;;;;;;9.23;3.50;;;9.60;68.60;;;;;;5095582;28;20024;-28
2022/04/29 00:05:35;;;;;;;4.18;2.80;;;9.60;68.80;;;;;;5095739;28;20020;-28
2022/04/29 00:08:05;;;;;;;8.00;3.15;;;9.50;68.70;;;;;;5095456;28;20013;-36
2022/04/29 00:10:31;;;;;;;7.35;3.58;;;9.60;69.00;;;;;;5095187;28;20036;-36
2022/04/29 00:12:57;;;;;;;7.28;3.05;;;9.50;69.10;;;;;;5095186;28;20073;-27
2022/04/29 00:15:23;;;;;;;6.25;3.47;;;9.40;69.10;;;;;;5095088;28;20409;-28
2022/04/29 00:17:49;;;;;;;6.03;3.38;;;9.50;69.30;;;;;;5095009;28;20027;-29
2022/04/29 00:20:15;;;;;;;8.35;3.00;;;9.40;69.30;;;;;;5095170;28;20032;-29
2022/04/29 00:22:41;;;;;;;8.73;4.13;;;9.40;69.30;;;;;;5094867;28;20481;-28
2022/04/29 00:25:08;;;;;;;6.53;3.38;;;9.30;69.50;;;;;;5094849;28;20036;-27
2022/04/29 00:27:34;;;;;;;6.68;3.75;;;9.30;69.60;;;;;;5094618;28;20024;-31
2022/04/29 00:30:00;;;;;;;6.43;3.53;;;9.30;69.70;;;;;;5094820;28;20459;-29
2022/04/29 00:32:26;;;;;;;8.73;3.92;;;9.30;69.70;;;;;;5094591;28;20503;-28
2022/04/29 00:34:51;;;;;;;9.63;3.88;;;9.20;69.80;;;;;;5093276;28;20111;-28
2022/04/29 00:37:18;;;;;;;6.88;3.30;;;9.20;69.80;;;;;;5094723;28;20032;-28
2022/04/29 00:39:44;;;;;;;7.47;3.83;;;9.20;69.70;;;;;;5094680;28;20020;-30
2022/04/29 00:42:11;;;;;;;6.00;3.53;;;9.20;69.70;;;;;;5094718;28;20024;-27
2022/04/29 00:44:40;;;;;;;5.22;3.38;;;9.20;69.80;;;;;;5094881;28;20091;-33
2022/04/29 00:47:11;;;;;;;6.72;3.22;;;9.20;69.80;;;;;;5094523;28;20097;-29
2022/04/29 00:49:36;;;;;;;7.53;3.92;;;9.10;70.00;;;;;;5094196;28;20016;-29
2022/04/29 00:52:07;;;;;;;7.50;3.80;;;9.00;70.20;;;;;;5094254;28;20028;-31
2022/04/29 00:54:35;;;;;;;5.10;3.42;;;9.00;70.20;;;;;;5094084;28;20085;-28
2022/04/29 00:57:04;;;;;;;7.32;3.90;;;9.00;70.50;;;;;;5092526;28;20052;-28
2022/04/29 00:59:47;;;;;;;8.82;4.20;;;8.90;70.60;;;;;;5092479;28;20020;-28
2022/04/29 01:02:14;;;;;;;8.13;4.03;;;8.90;70.90;;;;;;5093986;28;20479;-30
2022/04/29 01:05:02;;;;;;;5.95;4.22;;;8.80;71.00;;;;;;5093773;28;20020;-32
2022/04/29 01:07:29;;;;;;;8.32;3.97;;;8.80;71.10;;;;;;5093779;28;20102;-35
2022/04/29 01:09:55;;;;;;;10.15;4.47;;;8.80;71.10;;;;;;5093811;28;20024;-30
2022/04/29 01:12:23;;;;;;;10.43;4.15;;;8.80;71.10;;;;;;5093931;28;20031;-29
2022/04/29 01:14:49;;;;;;;7.65;4.30;;;8.80;71.20;;;;;;5093237;28;20024;-28
2022/04/29 01:17:15;;;;;;;8.55;4.55;;;8.70;71.20;;;;;;5094175;28;20054;-31
2022/04/29 01:19:40;;;;;;;7.85;4.88;;;8.70;71.30;;;;;;5093599;28;20028;-27
2022/04/29 01:22:07;;;;;;;8.50;4.07;;;8.70;71.30;;;;;;5093471;28;20121;-28
2022/04/29 01:24:33;;;;;;;8.25;5.00;;;8.70;71.30;;;;;;5093642;28;20019;-28
2022/04/29 01:26:58;;;;;;;8.63;4.45;;;8.70;71.40;;;;;;5093367;28;20428;-28
2022/04/29 01:29:26;;;;;;;10.35;5.03;;;8.70;71.60;;;;;;5093345;28;20020;-28
2022/04/29 01:31:53;;;;;;;9.52;4.90;;;8.70;71.60;;;;;;5093476;28;20047;-28
2022/04/29 01:34:19;;;;;;;11.35;4.93;;;8.70;71.70;;;;;;5093524;28;20031;-28
2022/04/29 01:36:44;;;;;;;13.88;4.97;;;8.70;71.80;;;;;;5093412;28;20103;-29
2022/04/29 01:39:10;;;;;;;6.45;4.70;;;8.60;71.70;;;;;;5093190;28;20017;-34
2022/04/29 01:41:35;;;;;;;7.70;4.72;;;8.60;71.70;;;;;;5093085;28;20024;-33
2022/04/29 01:44:01;;;;;;;8.93;4.65;;;8.60;71.80;;;;;;5093326;28;20020;-28
2022/04/29 01:46:26;;;;;;;7.85;4.50;;;8.60;71.80;;;;;;5093597;28;20024;-31
2022/04/29 01:48:52;;;;;;;7.20;4.43;;;8.60;72.00;;;;;;5093332;28;20031;-28
2022/04/29 01:51:17;;;;;;;10.10;5.18;;;8.60;72.00;;;;;;5093265;28;20160;-30
2022/04/29 01:53:43;;;;;;;7.20;5.10;;;8.50;72.10;;;;;;5092964;28;20028;-30
2022/04/29 01:56:09;;;;;;;9.00;4.97;;;8.50;72.20;;;;;;5092983;28;20071;-32
2022/04/29 01:58:34;;;;;;;7.95;4.82;;;8.50;72.20;;;;;;5093500;28;20039;-31
2022/04/29 02:01:00;;;;;;;9.70;5.35;;;8.50;72.10;;;;;;5093197;28;20034;-30
2022/04/29 02:03:26;;;;;;;7.20;4.90;;;8.60;72.10;;;;;;5093014;28;20032;-32
2022/04/29 02:05:52;;;;;;;12.45;5.43;;;8.60;72.10;;;;;;5093003;28;20127;-29
2022/04/29 02:08:18;;;;;;;5.75;4.50;;;8.50;72.10;;;;;;5092692;28;20419;-27
2022/04/29 02:10:43;;;;;;;7.78;5.00;;;8.50;72.10;;;;;;5092812;28;20020;-30
2022/04/29 02:13:09;;;;;;;11.38;5.78;;;8.60;72.20;;;;;;5092795;28;20016;-28
2022/04/29 02:15:35;;;;;;;10.43;5.13;;;8.50;72.40;;;;;;5092857;28;20020;-28
2022/04/29 02:18:00;;;;;;;10.88;5.60;;;8.50;72.60;;;;;;5092500;28;20028;-30
2022/04/29 02:20:26;;;;;;;10.13;5.20;;;8.40;72.70;;;;;;5092360;28;20107;-28
2022/04/29 02:22:57;;;;;;;8.43;5.47;;;8.40;72.70;;;;;;5092342;28;20418;-30
2022/04/29 02:25:23;;;;;;;9.30;5.30;;;8.40;72.90;;;;;;5092523;28;20048;-29
2022/04/29 02:27:49;;;;;;;6.03;4.70;;;8.40;72.80;;;;;;5092520;28;20035;-29
2022/04/29 02:30:14;;;;;;;9.52;5.65;;;8.40;72.80;;;;;;5092327;28;20020;-29
2022/04/29 02:32:41;;;;;;;11.13;5.00;;;8.40;72.80;;;;;;5092462;28;20028;-28
2022/04/29 02:35:07;;;;;;;10.20;5.47;;;8.40;72.70;;;;;;5092342;28;20115;-30
2022/04/29 02:37:34;;;;;;;11.60;5.70;;;8.40;72.80;;;;;;5092457;28;20060;-32
2022/04/29 02:39:59;;;;;;;9.35;5.50;;;8.40;72.80;;;;;;5092294;28;20016;-30
2022/04/29 02:42:25;;;;;;;9.18;5.10;;;8.50;72.90;;;;;;5092325;28;20035;-29
2022/04/29 02:44:50;;;;;;;12.85;6.07;;;8.40;72.80;;;;;;5092531;28;20106;-28
2022/04/29 02:47:16;;;;;;;9.40;5.15;;;8.40;72.80;;;;;;5091136;28;20141;-30
2022/04/29 02:49:43;;;;;;;8.32;4.97;;;8.40;72.90;;;;;;5092482;28;20383;-29
2022/04/29 02:52:13;;;;;;;8.13;4.88;;;8.40;72.90;;;;;;5092886;28;20464;-31
2022/04/29 02:54:39;;;;;;;9.75;4.72;;;8.40;72.80;;;;;;5092545;28;20020;-29
2022/04/29 02:57:06;;;;;;;9.82;5.70;;;8.40;72.80;;;;;;5092055;28;20098;-35
2022/04/29 02:59:32;;;;;;;12.70;5.32;;;8.50;72.90;;;;;;5092163;28;20024;-28
2022/04/29 03:01:58;;;;;;;8.82;5.00;;;8.50;72.90;;;;;;5092300;28;20426;-29
2022/04/29 03:04:24;;;;;;;9.48;5.05;;;8.50;73.00;;;;;;5092339;28;20095;-29
2022/04/29 03:06:49;;;;;;;13.02;5.95;;;8.50;72.90;;;;;;5092077;28;20463;-31
2022/04/29 03:09:16;;;;;;;10.73;5.78;;;8.40;73.00;;;;;;5092221;28;20024;-28
2022/04/29 03:11:42;;;;;;;11.15;5.93;;;8.40;73.00;;;;;;5092344;28;20081;-28
2022/04/29 03:14:08;;;;;;;9.52;5.60;;;8.40;73.10;;;;;;5092340;28;20028;-31
2022/04/29 03:16:34;;;;;;;14.77;5.82;;;8.40;73.20;;;;;;5092230;28;20032;-30
2022/04/29 03:19:00;;;;;;;8.50;5.07;;;8.40;73.20;;;;;;5092180;28;20032;-29
2022/04/29 03:21:26;;;;;;;8.70;5.00;;;8.40;73.30;;;;;;5091801;28;20471;-32
2022/04/29 03:23:51;;;;;;;10.30;4.97;;;8.30;73.20;;;;;;5092221;28;20494;-29
2022/04/29 03:26:17;;;;;;;12.68;6.15;;;8.40;73.30;;;;;;5091842;28;20025;-28
2022/04/29 03:28:43;;;;;;;8.45;5.50;;;8.30;73.50;;;;;;5091733;28;20039;-31
2022/04/29 03:31:09;;;;;;;8.88;5.60;;;8.30;73.50;;;;;;5091680;28;20017;-34
2022/04/29 03:33:35;;;;;;;7.30;4.95;;;8.30;73.50;;;;;;5091697;28;20480;-29
2022/04/29 03:36:00;;;;;;;12.35;5.00;;;8.30;73.50;;;;;;5091626;28;20082;-35
2022/04/29 03:38:26;;;;;;;9.65;5.25;;;8.30;73.60;;;;;;5094646;28;20472;-28
2022/04/29 03:40:53;;;;;;;9.82;5.53;;;8.30;73.60;;;;;;5095490;28;20031;-28
2022/04/29 03:43:20;;;;;;;9.93;5.65;;;8.20;73.80;;;;;;5095518;28;20028;-29
2022/04/29 03:45:46;;;;;;;10.68;5.38;;;8.20;73.80;;;;;;5095372;28;20165;-31
2022/04/29 03:48:12;;;;;;;9.43;5.00;;;8.20;73.90;;;;;;5095856;28;20365;-32
2022/04/29 03:50:38;;;;;;;11.02;5.32;;;8.20;73.90;;;;;;5094171;28;20024;-28
2022/04/29 03:53:05;;;;;;;9.73;5.47;;;8.20;73.90;;;;;;5095689;28;20050;-28
2022/04/29 03:55:33;;;;;;;13.77;5.70;;;8.20;74.00;;;;;;5095452;28;20051;-28
2022/04/29 03:57:59;;;;;;;11.20;5.03;;;8.20;74.00;;;;;;5096072;28;20016;-28
2022/04/29 04:00:31;;;;;;;10.30;5.15;;;8.20;74.00;;;;;;5095621;28;20028;-29
2022/04/29 04:03:00;;;;;;;12.40;5.55;;;8.20;74.00;;;;;;5095964;28;20085;-27
2022/04/29 04:05:26;;;;;;;11.70;5.57;;;8.10;74.00;;;;;;5095529;28;20032;-34
2022/04/29 04:07:52;;;;;;;11.75;5.57;;;8.10;74.10;;;;;;5095636;28;20028;-28
2022/04/29 04:10:18;;;;;;;9.85;5.32;;;8.10;74.80;;;;;;5095170;28;20028;-29
2022/04/29 04:12:46;;;;;;;12.70;5.70;;;8.10;74.20;;;;;;5094217;28;20031;-29
2022/04/29 04:15:14;;;;;;;10.02;4.28;;;8.10;74.90;;;;;;5095471;28;20024;-29
2022/04/29 04:17:40;;;;;;;10.15;5.05;;;8.10;74.20;;;;;;5095532;28;20487;-33
2022/04/29 04:20:08;;;;;;;12.48;5.38;;;8.20;74.20;;;;;;5095373;28;20383;-32
2022/04/29 04:22:37;;;;;;;10.35;5.60;;;8.10;74.30;;;;;;5094772;28;20031;-28
2022/04/29 04:25:04;;;;;;;13.02;5.55;;;8.10;74.40;;;;;;5095129;28;20773;-27
2022/04/29 04:27:31;;;;;;;9.82;5.65;;;8.10;74.40;;;;;;5094547;28;20024;-28
2022/04/29 04:29:57;;;;;;;10.88;5.55;;;8.20;74.40;;;;;;5094393;28;20058;-29
2022/04/29 04:32:23;;;;;;;10.98;5.47;;;8.20;74.50;;;;;;5094418;28;20363;-28
2022/04/29 04:34:52;;;;;;;6.70;4.43;;;8.20;74.60;;;;;;5094537;28;20047;-31
2022/04/29 04:37:22;;;;;;;8.70;5.13;;;8.10;74.50;;;;;;5094436;28;20193;-29
2022/04/29 04:39:48;;;;;;;8.85;4.93;;;8.20;74.40;;;;;;5094477;28;20020;-28
2022/04/29 04:42:14;;;;;;;12.05;5.30;;;8.20;74.50;;;;;;5094387;28;20028;-29
2022/04/29 04:44:40;;;;;;;7.53;4.82;;;8.20;74.50;;;;;;5094403;28;20332;-35
2022/04/29 04:47:07;;;;;;;9.18;5.50;;;8.20;74.50;;;;;;5094284;28;20024;-36
2022/04/29 04:49:33;;;;;;;11.18;5.45;;;8.20;74.40;;;;;;5093165;28;20028;-30
2022/04/29 04:51:59;;;;;;;12.05;5.60;;;8.20;74.50;;;;;;5094081;28;20036;-30
2022/04/29 04:54:25;;;;;;;12.90;5.63;;;8.20;74.60;;;;;;5094109;28;20040;-29
2022/04/29 04:56:50;;;;;;;8.98;5.40;;;8.20;74.50;;;;;;5093810;28;20380;-30
2022/04/29 04:59:16;;;;;;;10.63;4.93;;;8.20;74.60;;;;;;5092789;28;20032;-28
2022/04/29 05:01:42;;;;;;;10.60;5.32;;;8.20;74.60;;;;;;5093866;28;20032;-35
2022/04/29 05:04:07;;;;;;;8.90;5.40;;;8.20;74.60;;;;;;5093718;28;20390;-28
2022/04/29 05:06:33;;;;;;;10.40;5.22;;;8.20;74.50;;;;;;5094182;28;20024;-28
2022/04/29 05:08:59;;;;;;;11.02;5.30;;;8.30;74.60;;;;;;5093801;28;20045;-28
2022/04/29 05:11:24;;;;;;;9.73;5.07;;;8.30;74.60;;;;;;5093838;28;20028;-27
2022/04/29 05:13:50;;;;;;;9.48;4.60;;;8.30;74.50;;;;;;5093642;28;20032;-30
2022/04/29 05:16:15;;;;;;;9.15;4.50;;;8.30;74.40;;;;;;5093889;28;20028;-31
2022/04/29 05:18:41;;;;;;;10.65;5.07;;;8.40;74.40;;;;;;5094006;28;20392;-33
2022/04/29 05:21:06;;;;;;;11.07;4.75;;;8.40;74.30;;;;;;5093539;28;20035;-29
2022/04/29 05:23:34;;;;;;;10.70;5.13;;;8.40;74.30;;;;;;5093646;28;20085;-29
2022/04/29 05:26:00;;;;;;;9.73;4.80;;;8.40;74.40;;;;;;5093592;28;20081;-29
2022/04/29 05:28:25;;;;;;;9.95;5.68;;;8.40;74.40;;;;;;5093654;28;20048;-29
2022/04/29 05:30:51;;;;;;;13.70;5.35;;;8.40;74.80;;;;;;5093780;28;20024;-33
2022/04/29 05:33:16;;;;;;;9.38;5.22;;;8.40;74.60;;;;;;5093808;28;20081;-29
2022/04/29 05:35:42;;;;;;;12.80;5.43;;;8.40;74.70;;;;;;5093965;28;20066;-28
2022/04/29 05:38:08;;;;;;;8.38;4.93;;;8.40;74.70;;;;;;5093589;28;20103;-31
2022/04/29 05:43:17;;;;;;;9.68;5.00;;;8.40;74.70;;;;;;5093463;28;20066;-28
2022/04/29 05:45:43;;;;;;;10.73;5.57;;;8.50;74.70;;;;;;5093196;28;20028;-29
2022/04/29 05:48:09;;;;;;;10.07;5.80;;;8.50;74.80;;;;;;5091679;28;20103;-29
2022/04/29 05:50:34;;;;;;;8.80;5.40;;;8.40;74.80;;;;;;5093052;28;20020;-31
2022/04/29 05:53:00;;;;;;;13.32;6.07;;;8.50;74.80;;;;;;5092987;28;20129;-28
2022/04/29 05:55:27;;;;;;;9.68;5.93;;;8.50;74.80;;;;;;5093004;28;20028;-29
2022/04/29 05:57:53;;;;;;;10.80;5.85;;;8.50;74.80;;;;;;5093296;28;20459;-34
2022/04/29 06:00:19;;;;;;;9.90;5.72;;;8.50;74.70;;;;;;5092594;28;20024;-33
2022/04/29 06:02:47;;;;;;;11.52;5.70;;;8.50;74.80;;;;;;5093294;28;20047;-28
2022/04/29 06:05:13;;;;;;;9.30;5.30;;;8.60;74.70;;;;;;5093168;28;20024;-30
2022/04/29 06:07:41;;;;;;;8.88;5.00;;;8.60;74.70;;;;;;5091279;28;20058;-28
2022/04/29 06:10:08;;;;;;;10.52;5.15;;;8.60;74.50;;;;;;5092632;28;20095;-28
2022/04/29 06:12:41;;;;;;;10.82;6.13;;;8.70;74.50;;;;;;5093034;28;20429;-29
2022/04/29 06:15:07;;;;;;;9.00;5.00;;;8.70;74.40;;;;;;5093098;28;20050;-29
2022/04/29 06:17:33;;;;;;;11.55;5.32;;;8.80;74.30;;;;;;5093004;28;20032;-30
2022/04/29 06:19:58;;;;;;;7.85;4.97;;;8.90;74.30;;;;;;5092884;28;20493;-28
2022/04/29 06:22:24;;;;;;;7.65;5.28;;;8.90;74.30;;;;;;5092582;28;20066;-34
2022/04/29 06:24:50;;;;;;;8.38;5.90;;;8.90;74.20;;;;;;5092688;28;20107;-34
2022/04/29 06:27:15;;;;;;;10.43;5.03;;;9.00;74.20;;;;;;5092715;28;20089;-28
2022/04/29 06:29:41;;;;;;;9.15;5.18;;;9.00;74.00;;;;;;5091297;28;20028;-28
2022/04/29 06:32:07;;;;;;;9.75;4.88;;;9.00;74.00;;;;;;5092675;28;20038;-28
2022/04/29 06:34:34;;;;;;;12.75;5.28;;;9.10;73.90;;;;;;5092479;28;20024;-30
2022/04/29 06:37:00;;;;;;;8.73;4.90;;;9.10;73.80;;;;;;5092327;28;20032;-32
2022/04/29 06:39:25;;;;;;;6.18;4.40;;;9.20;73.80;;;;;;5092360;28;20021;-30
2022/04/29 06:41:51;;;;;;;13.30;5.50;;;9.30;73.70;;;;;;5092147;28;20027;-28
2022/04/29 06:44:16;;;;;;;9.40;4.80;;;9.30;73.60;;;;;;5092275;28;20031;-32
2022/04/29 06:46:42;;;;;;;7.28;4.70;;;9.30;73.40;;;;;;5092586;28;20130;-30
2022/04/29 06:49:09;;;;;;;9.68;4.90;;;9.40;73.40;;;;;;5092205;28;20085;-29
2022/04/29 06:51:35;;;;;;;10.25;5.30;;;9.40;73.40;;;;;;5092259;28;20032;-31
2022/04/29 06:54:00;;;;;;;8.05;4.50;;;9.50;73.30;;;;;;5092262;28;20032;-28
2022/04/29 06:56:26;;;;;;;7.82;4.70;;;9.50;73.20;;;;;;5092017;28;20597;-28
2022/04/29 06:58:52;;;;;;;9.25;4.78;;;9.60;73.20;;;;;;5092195;28;20174;-30
2022/04/29 07:01:18;;;;;;;11.20;4.82;;;9.60;73.10;;;;;;5092377;28;20387;-29
2022/04/29 07:03:44;;;;;;;9.30;4.80;;;9.60;73.10;;;;;;5092660;28;20016;-30
2022/04/29 07:06:10;;;;;;;17.48;8.45;;;9.70;73.10;;;;;;5092422;28;20081;-33
2022/04/29 07:08:35;;;;;;;11.20;5.10;;;9.80;73.00;;;;;;5092602;28;20028;-34
2022/04/29 07:11:01;;;;;;;8.48;4.97;;;9.80;72.80;;;;;;5092666;28;20028;-32
2022/04/29 07:13:27;;;;;;;6.00;4.40;;;9.90;72.70;;;;;;5095615;28;20025;-33
2022/04/29 07:15:53;;;;;;;10.63;4.90;;;10.00;72.70;;;;;;5096996;28;20055;-32
2022/04/29 07:18:20;;;;;;;8.00;4.40;;;10.00;72.50;;;;;;5096847;28;20032;-28
2022/04/29 07:20:45;;;;;;;12.25;4.30;;;10.00;72.50;;;;;;5096377;28;20028;-28
2022/04/29 07:23:11;;;;;;;11.10;5.00;;;10.00;72.50;;;;;;5096318;28;20051;-28
2022/04/29 07:25:37;;;;;;;7.80;4.00;;;10.00;72.50;;;;;;5096174;28;20028;-28
2022/04/29 07:28:02;;;;;;;8.25;4.90;;;10.10;72.50;;;;;;5096377;28;20073;-29
2022/04/29 07:30:28;;;;;;;9.43;4.43;;;10.10;72.30;;;;;;5094720;28;20054;-29
2022/04/29 07:32:54;;;;;;;8.95;4.30;;;10.20;72.10;;;;;;5095809;28;20482;-33
2022/04/29 07:43:33;;;;;;;6.82;4.25;;;10.40;71.70;;;;;;5095867;28;20468;-32
2022/04/29 07:46:01;;;;;;;7.72;4.47;;;10.50;71.60;;;;;;5095747;28;20099;-34
2022/04/29 07:48:27;;;;;;;9.02;4.05;;;10.60;71.50;;;;;;5095404;28;20035;-32
2022/04/29 07:50:52;;;;;;;8.20;4.65;;;10.70;71.30;;;;;;5095414;28;20028;-30
2022/04/29 07:53:18;;;;;;;7.43;4.10;;;10.70;71.10;;;;;;5095909;28;20103;-32
2022/04/29 07:55:44;;;;;;;7.82;4.50;;;10.70;71.10;;;;;;5095814;28;20040;-35
2022/04/29 07:58:10;;;;;;;11.52;5.15;;;10.70;71.10;;;;;;5096303;28;20028;-35
2022/04/29 08:00:39;;;;;;;9.02;4.70;;;10.80;71.00;;;;;;5096039;28;20081;-30
2022/04/29 08:03:05;;;;;;;8.13;4.22;;;10.80;71.00;;;;;;5095898;28;20480;-32
2022/04/29 08:05:31;;;;;;;8.32;4.85;;;11.00;70.80;;;;;;5095969;28;20035;-29
2022/04/29 08:07:59;;;;;;;7.53;4.45;;;11.10;70.60;;;;;;5095907;28;20040;-30
2022/04/29 08:10:32;;;;;;;12.05;4.70;;;11.30;70.30;;;;;;5095731;28;20027;-29
2022/04/29 08:12:59;;;;;;;7.87;5.10;;;11.30;69.90;;;;;;5094886;28;20085;-30
2022/04/29 08:15:25;;;;;;;6.38;4.15;;;11.30;69.60;;;;;;5095396;28;20055;-31
2022/04/29 08:17:51;;;;;;;8.70;4.57;;;11.40;69.60;;;;;;5093635;28;20038;-32
2022/04/29 08:20:17;;;;;;;7.60;4.75;;;11.50;69.40;;;;;;5095398;28;20371;-32
2022/04/29 08:22:42;;;;;;;10.02;4.72;;;11.50;68.90;;;;;;5094801;28;20035;-28
2022/04/29 08:25:09;;;;;;;7.60;4.70;;;11.60;69.00;;;;;;5095369;28;20054;-34
2022/04/29 08:27:35;;;;;;;11.85;4.90;;;11.60;68.50;;;;;;5093812;28;20056;-31
2022/04/29 08:30:01;;;;;;;8.48;4.40;;;11.70;68.40;;;;;;5095142;28;20092;-30
2022/04/29 08:32:26;;;;;;;8.02;4.60;;;11.80;68.20;;;;;;5095065;28;20034;-31
2022/04/29 08:34:52;;;;;;;10.35;4.32;;;11.90;68.20;;;;;;5094807;28;20020;-36
2022/04/29 08:37:18;;;;;;;7.22;4.18;;;12.00;67.80;;;;;;5094807;28;20016;-33
2022/04/29 08:39:44;;;;;;;9.15;5.07;;;12.00;67.20;;;;;;5094403;28;20016;-35
2022/04/29 08:42:10;;;;;;;6.60;4.10;;;12.10;66.70;;;;;;5094253;28;20039;-35
2022/04/29 08:44:39;;;;;;;7.97;5.00;;;12.10;66.40;;;;;;5094450;28;20386;-31
2022/04/29 08:47:08;;;;;;;10.45;5.40;;;12.10;66.30;;;;;;5094505;28;20024;-30
2022/04/29 08:49:35;;;;;;;8.95;4.90;;;12.10;66.30;;;;;;5094723;28;20047;-31
2022/04/29 08:52:01;;;;;;;7.70;4.70;;;12.10;66.10;;;;;;5094231;28;20023;-30
2022/04/29 09:00:04;;;;;;;10.65;5.00;;;12.20;66.00;;;;;;5094224;28;20082;-31
2022/04/29 09:02:38;;;;;;;;;;;12.30;65.70;;;;;;5095016;28;20026;-33
2022/04/29 09:05:08;;;;;;;7.57;4.78;;;12.30;65.50;;;;;;5093748;28;19910;-34
2022/04/29 09:08:00;;;;;;;7.15;4.50;;;12.40;65.60;;;;;;5094548;28;20024;-30
2022/04/29 09:10:28;;;;;;;8.75;4.65;;;12.50;65.60;;;;;;5094361;28;20050;-32
2022/04/29 09:12:54;;;;;;;8.93;4.80;;;12.50;65.60;;;;;;5093853;28;20043;-31
2022/04/29 09:15:21;;;;;;;9.98;4.78;;;12.60;65.30;;;;;;5094533;28;20021;-28
2022/04/29 09:17:51;;;;;;;10.73;5.00;;;12.70;64.70;;;;;;5094066;28;20056;-28
2022/04/29 09:20:19;;;;;;;5.88;4.70;;;12.80;64.60;;;;;;5093982;28;20090;-28
2022/04/29 09:22:50;;;;;;;9.45;4.07;;;12.90;64.60;;;;;;5093628;28;20103;-30
2022/04/29 09:25:17;;;;;;;6.78;5.03;;;13.10;64.50;;;;;;5093688;28;20023;-39
2022/04/29 09:27:53;;;;;;;8.25;4.88;;;13.30;63.90;;;;;;5092268;28;20024;-32
2022/04/29 09:30:38;;;;;;;7.30;4.35;;;13.40;63.60;;;;;;5093505;28;20512;-32
2022/04/29 09:33:18;;;;;;;8.93;4.68;;;13.50;62.50;;;;;;5093684;28;20063;-28
2022/04/29 09:35:45;;;;;;;8.90;4.70;;;13.50;62.30;;;;;;5092698;28;20066;-29
2022/04/29 09:40:58;;;;;;;9.32;4.90;;;13.70;62.40;;;;;;5093580;28;20595;-30
2022/04/29 09:43:44;;;;;;;7.30;5.20;;;13.80;62.20;;;;;;5093316;28;20023;-29
2022/04/29 09:46:25;;;;;;;14.32;5.57;;;13.90;62.00;;;;;;5093336;28;20054;-32
2022/04/29 09:48:58;;;;;;;9.25;5.65;;;13.90;61.70;;;;;;5091975;28;20426;-28
2022/04/29 09:51:42;;;;;;;9.43;4.80;;;13.90;62.00;;;;;;5093130;28;20063;-29
2022/04/29 09:54:17;;;;;;;7.47;5.20;;;13.90;62.00;;;;;;5093214;28;20028;-31
2022/04/29 09:57:05;;;;;;;7.93;5.10;;;13.90;61.90;;;;;;5091491;28;20048;-31
2022/04/29 09:59:36;;;;;;;9.48;5.50;;;14.00;61.80;;;;;;5093056;28;20028;-29
2022/04/29 10:02:03;;;;;;;12.15;5.82;;;14.00;61.60;;;;;;5093039;28;20035;-29
2022/04/29 10:04:34;;;;;;;10.77;5.10;;;14.00;61.60;;;;;;5092842;28;20073;-31
2022/04/29 10:07:05;;;;;;;8.70;4.82;;;14.00;61.80;;;;;;5093132;28;20028;-29
2022/04/29 10:09:36;;;;;;;6.50;4.28;;;14.20;61.90;;;;;;5092853;28;20071;-33
2022/04/29 10:12:04;;;;;;;7.95;4.63;;;14.30;61.70;;;;;;5092922;28;20487;-30
2022/04/29 10:14:31;;;;;;;7.00;4.40;;;14.40;61.10;;;;;;5093067;28;20088;-29
2022/04/29 10:22:41;;;;;;;10.73;5.30;;;14.50;60.50;;;;;;5092869;28;20066;-29
2022/04/29 10:25:08;;;;;;;6.50;4.40;;;14.50;60.60;;;;;;5092764;28;20436;-30
2022/04/29 10:27:39;;;;;;;8.55;4.50;;;14.40;60.50;;;;;;5092874;28;20070;-29
2022/04/29 10:30:06;;;;;;;9.32;4.68;;;14.40;60.20;;;;;;5092605;28;20028;-28
2022/04/29 10:33:00;;;;;;;8.98;4.25;;;14.40;60.30;;;;;;5092517;28;20365;-35
2022/04/29 10:35:42;;;;;;;6.00;3.80;;;14.50;60.30;;;;;;5092600;28;20044;-29
2022/04/29 10:38:15;;;;;;;8.40;4.60;;;14.50;60.10;;;;;;5092295;28;20464;-29
2022/04/29 10:40:42;;;;;;;9.27;4.60;;;14.60;59.90;;;;;;5092470;28;20024;-31
2022/04/29 10:43:09;;;;;;;9.35;4.40;;;14.60;59.80;;;;;;5092144;28;20098;-30
2022/04/29 10:45:36;;;;;;;7.03;4.10;;;14.50;59.50;;;;;;5092270;28;20472;-34
2022/04/29 10:48:53;;;;;;;6.88;4.40;;;14.60;59.50;;;;;;5092411;28;20008;-30
2022/04/29 10:51:46;;;;;;;7.78;3.75;;;14.60;59.20;;;;;;5047274;28;20035;-29
2022/04/29 10:54:12;;;;;;;7.95;4.43;;;14.60;59.20;;;;;;5092340;28;20027;-31
2022/04/29 10:56:38;;;;;;;8.98;4.60;;;14.60;59.00;;;;;;5090785;28;20404;-29
2022/04/29 10:59:09;;;;;;;9.27;4.55;;;14.60;58.60;;;;;;5092287;28;20024;-32
2022/04/29 11:01:36;;;;;;;8.93;4.03;;;14.50;58.90;;;;;;5092257;28;20062;-30
2022/04/29 11:04:05;;;;;;;6.40;4.35;;;14.50;59.70;;;;;;5091849;28;20024;-46
2022/04/29 11:06:41;;;;;;;6.07;4.20;;;14.60;58.80;;;;;;5092086;28;20016;-46
2022/04/29 11:09:25;;;;;;;8.70;4.43;;;14.60;58.70;;;;;;5092268;28;20047;-45
2022/04/29 11:11:51;;;;;;;7.63;4.40;;;14.60;58.50;;;;;;5091903;28;20032;-45
2022/04/29 11:14:17;;;;;;;7.13;4.20;;;14.60;58.70;;;;;;5091937;28;20047;-46
2022/04/29 11:16:55;;;;;;;8.93;4.10;;;14.70;58.70;;;;;;5092019;28;20020;-46
2022/04/29 11:19:23;;;;;;;10.20;4.10;;;14.70;58.70;;;;;;5092078;28;20020;-47
2022/04/29 11:24:46;;;;;;;5.65;3.97;;;14.80;58.70;;;;;;5092455;28;20043;-46
2022/04/29 11:27:12;;;;;;;6.15;4.05;;;14.90;58.80;;;;;;5092436;28;20071;-46
2022/04/29 11:29:46;;;;;;;6.45;4.28;;;15.00;58.50;;;;;;5092408;28;20027;-46
2022/04/29 11:32:12;;;;;;;;;;;15.00;58.30;;;;;;5092661;28;20393;-47
2022/04/29 11:34:50;;;;;;;5.15;4.10;;;15.00;58.10;;;;;;5092117;28;19908;-46
2022/04/29 11:37:25;;;;;;;12.50;5.03;;;15.00;58.20;;;;;;5092536;28;20060;-47
2022/04/29 11:40:00;;;;;;;7.80;4.28;;;15.00;57.90;;;;;;5092374;28;20031;-45
2022/04/29 11:42:27;;;;;;;8.13;4.57;;;15.00;57.70;;;;;;5092394;28;20376;-46
2022/04/29 11:44:53;;;;;;;8.32;4.53;;;14.90;57.60;;;;;;5092067;28;20028;-46
2022/04/29 11:47:30;;;;;;;7.40;4.00;;;14.90;57.80;;;;;;5090881;28;20024;-46
2022/04/29 11:49:55;;;;;;;9.57;4.35;;;14.90;58.10;;;;;;5092055;28;20495;-46
2022/04/29 11:52:23;;;;;;;8.95;4.45;;;14.90;58.10;;;;;;5092521;28;20118;-49
2022/04/29 11:54:53;;;;;;;5.80;4.28;;;14.90;58.00;;;;;;5092408;28;20023;-45
2022/04/29 11:57:20;;;;;;;5.88;4.20;;;14.90;58.20;;;;;;5091977;28;20044;-46
2022/04/29 11:59:46;;;;;;;6.03;4.35;;;15.00;58.00;;;;;;5095412;28;20028;-45
2022/04/29 12:02:14;;;;;;;8.13;4.32;;;14.90;57.90;;;;;;5095694;28;20437;-46
2022/04/29 12:05:01;;;;;;;7.80;4.40;;;15.00;58.00;;;;;;5096032;28;20020;-46
2022/04/29 12:07:29;;;;;;;5.75;3.85;;;15.00;57.80;;;;;;5095936;28;20126;-46
2022/04/29 12:09:56;;;;;;;6.82;4.00;;;15.00;57.90;;;;;;5095905;28;20467;-46
2022/04/29 12:12:29;;;;;;;7.55;4.43;;;15.00;57.70;;;;;;5095620;28;20023;-46
2022/04/29 12:14:55;;;;;;;;;;;15.00;57.80;;;;;;5096053;28;20029;-47
2022/04/29 12:17:41;;;;;;;8.90;3.92;;;15.00;57.80;;;;;;5095782;28;19910;-46
2022/04/29 12:20:09;;;;;;;6.43;4.20;;;15.00;58.00;;;;;;5094813;28;20043;-46
2022/04/29 12:22:37;;;;;;;6.55;4.32;;;15.10;57.70;;;;;;5095038;28;20023;-46
2022/04/29 12:25:21;;;;;;;7.57;3.80;;;15.10;57.20;;;;;;5095451;28;20016;-47
2022/04/29 12:28:08;;;;;;;6.95;4.10;;;15.00;57.20;;;;;;5095206;28;20077;-46
2022/04/29 12:36:09;;;;;;;16.30;4.13;;;14.90;57.20;;;;;;5094964;28;20208;-46
2022/04/29 12:38:40;;;;;;;8.45;3.90;;;15.00;57.00;;;;;;5094876;28;20066;-45
2022/04/29 12:41:21;;;;;;;8.13;3.78;;;15.00;56.90;;;;;;5094627;28;20028;-46
2022/04/29 12:43:47;;;;;;;6.32;3.60;;;15.10;56.60;;;;;;5094876;28;20070;-45
2022/04/29 12:46:14;;;;;;;5.50;3.95;;;15.10;56.40;;;;;;5094524;28;20020;-45
2022/04/29 12:48:47;;;;;;;8.02;4.30;;;15.20;56.00;;;;;;5094744;28;20020;-45
2022/04/29 12:51:23;;;;;;;5.30;3.53;;;15.10;55.80;;;;;;5094928;28;20032;-45
2022/04/29 12:53:48;;;;;;;5.50;3.80;;;15.10;56.00;;;;;;5094623;28;20036;-46
2022/04/29 12:56:32;;;;;;;8.02;4.30;;;15.10;56.00;;;;;;5094594;28;20093;-45
2022/04/29 12:58:59;;;;;;;7.38;3.75;;;15.10;55.90;;;;;;5094476;28;20027;-45
2022/04/29 13:01:25;;;;;;;6.30;3.70;;;15.10;56.00;;;;;;5094470;28;20032;-45
2022/04/29 13:03:55;;;;;;;7.57;3.90;;;15.10;55.90;;;;;;5094511;28;20089;-46
2022/04/29 13:06:24;;;;;;;7.07;3.80;;;15.20;55.40;;;;;;5094621;28;20103;-45
2022/04/29 13:08:55;;;;;;;6.07;4.13;;;15.40;55.50;;;;;;5094760;28;20063;-46
2022/04/29 13:11:22;;;;;;;6.93;3.83;;;15.70;55.20;;;;;;5093574;28;20434;-46
2022/04/29 13:13:48;;;;;;;10.93;4.05;;;15.90;55.00;;;;;;5094135;28;20020;-45
2022/04/29 13:16:15;;;;;;;7.55;4.00;;;16.00;54.30;;;;;;5094233;28;20016;-46
2022/04/29 13:18:41;;;;;;;7.05;3.63;;;16.20;54.10;;;;;;5094433;28;20021;-45
2022/04/29 13:21:07;;;;;;;6.82;3.35;;;16.40;54.10;;;;;;5092373;28;20035;-46
2022/04/29 13:23:37;;;;;;;18.30;4.40;;;16.50;54.00;;;;;;5094087;28;20024;-46
2022/04/29 13:26:03;;;;;;;5.03;3.38;;;16.70;53.30;;;;;;5093990;28;20391;-46
2022/04/29 13:28:34;;;;;;;8.82;3.53;;;16.80;53.10;;;;;;5093859;28;20023;-46